createdAt,value
2022-12-01T00:00:40.942Z,3.7
2022-12-01T00:01:41.174Z,3.7
2022-12-01T00:02:41.627Z,3.7
2022-12-01T00:03:41.993Z,3.7
2022-12-01T00:04:42.173Z,3.7
2022-12-01T00:05:42.328Z,3.7
2022-12-01T00:06:42.479Z,3.7
2022-12-01T00:07:42.811Z,3.7
2022-12-01T00:08:43.076Z,3.7
2022-12-01T00:09:43.230Z,3.7
2022-12-01T00:10:43.384Z,3.7
2022-12-01T00:11:43.549Z,3.7
2022-12-01T00:12:43.760Z,3.7
2022-12-01T00:13:43.914Z,3.7
2022-12-01T00:14:44.090Z,3.7
2022-12-01T00:15:44.241Z,3.7
2022-12-01T00:16:44.892Z,3.7
2022-12-01T00:17:45.342Z,3.7
2022-12-01T00:18:45.505Z,3.7
2022-12-01T00:19:46.114Z,3.7
2022-12-01T00:20:46.775Z,3.7
2022-12-01T00:21:46.929Z,3.7
2022-12-01T00:22:47.089Z,3.7
2022-12-01T00:23:47.260Z,3.7
2022-12-01T00:24:47.447Z,3.7
2022-12-01T00:25:47.620Z,3.6
2022-12-01T00:26:47.773Z,3.6
2022-12-01T00:27:47.938Z,3.6
2022-12-01T00:28:48.091Z,3.6
2022-12-01T00:29:48.848Z,3.6
2022-12-01T00:30:49.385Z,3.6
2022-12-01T00:31:49.683Z,3.6
2022-12-01T00:32:49.936Z,3.6
2022-12-01T00:33:50.097Z,3.6
2022-12-01T00:34:50.245Z,3.6
2022-12-01T00:35:50.399Z,3.6
2022-12-01T00:36:50.552Z,3.6
2022-12-01T00:37:50.705Z,3.6
2022-12-01T00:38:50.884Z,3.6
2022-12-01T00:39:51.509Z,3.6
2022-12-01T00:40:51.970Z,3.6
2022-12-01T00:41:52.132Z,3.6
2022-12-01T00:42:52.284Z,3.6
2022-12-01T00:43:52.434Z,3.6
2022-12-01T00:44:52.587Z,3.6
2022-12-01T00:45:52.836Z,3.6
2022-12-01T00:46:53.063Z,3.6
2022-12-01T00:47:53.221Z,3.6
2022-12-01T00:48:53.374Z,3.6
2022-12-01T00:49:53.530Z,3.6
2022-12-01T00:50:53.687Z,3.6
2022-12-01T00:51:53.843Z,3.6
2022-12-01T00:52:53.991Z,3.6
2022-12-01T00:53:54.142Z,3.6
2022-12-01T00:54:54.295Z,3.6
2022-12-01T00:55:54.451Z,3.6
2022-12-01T00:56:54.603Z,3.6
2022-12-01T00:57:54.763Z,3.6
2022-12-01T00:58:54.916Z,3.6
2022-12-01T00:59:55.077Z,3.6
2022-12-01T01:00:55.330Z,3.6
2022-12-01T01:01:55.753Z,3.6
2022-12-01T01:02:56.122Z,3.6
2022-12-01T01:03:56.381Z,3.6
2022-12-01T01:04:56.533Z,3.6
2022-12-01T01:05:56.693Z,3.6
2022-12-01T01:06:56.857Z,3.6
2022-12-01T01:07:57.155Z,3.6
2022-12-01T01:08:57.580Z,3.6
2022-12-01T01:09:57.730Z,3.6
2022-12-01T01:10:57.875Z,3.6
2022-12-01T01:11:58.028Z,3.6
2022-12-01T01:12:58.181Z,3.6
2022-12-01T01:13:58.331Z,3.6
2022-12-01T01:14:58.482Z,3.6
2022-12-01T01:15:58.656Z,3.6
2022-12-01T01:16:58.956Z,3.6
2022-12-01T01:17:59.245Z,3.6
2022-12-01T01:18:59.400Z,3.6
2022-12-01T01:19:59.548Z,3.6
2022-12-01T01:20:59.704Z,3.6
2022-12-01T01:21:59.858Z,3.6
2022-12-01T01:23:00.013Z,3.6
2022-12-01T01:24:00.190Z,3.6
2022-12-01T01:25:00.359Z,3.6
2022-12-01T01:26:00.518Z,3.6
2022-12-01T01:27:00.674Z,3.6
2022-12-01T01:28:00.834Z,3.6
2022-12-01T01:29:00.990Z,3.6
2022-12-01T01:30:01.152Z,3.6
2022-12-01T01:31:01.387Z,3.6
2022-12-01T01:32:01.733Z,3.6
2022-12-01T01:33:01.887Z,3.6
2022-12-01T01:34:02.043Z,3.6
2022-12-01T01:35:02.196Z,3.6
2022-12-01T01:36:02.356Z,3.6
2022-12-01T01:37:02.508Z,3.6
2022-12-01T01:38:02.667Z,3.6
2022-12-01T01:39:02.820Z,3.6
2022-12-01T01:40:02.974Z,3.6
2022-12-01T01:41:03.148Z,3.6
2022-12-01T01:42:03.325Z,3.6
2022-12-01T01:43:03.480Z,3.6
2022-12-01T01:44:03.632Z,3.6
2022-12-01T01:45:03.790Z,3.6
2022-12-01T01:46:04.062Z,3.6
2022-12-01T01:47:04.250Z,3.6
2022-12-01T01:48:04.403Z,3.6
2022-12-01T01:49:04.554Z,3.6
2022-12-01T01:50:04.705Z,3.6
2022-12-01T01:51:04.854Z,3.6
2022-12-01T01:52:05.015Z,3.6
2022-12-01T01:53:05.178Z,3.6
2022-12-01T01:54:05.334Z,3.6
2022-12-01T01:55:05.499Z,3.6
2022-12-01T01:56:05.654Z,3.6
2022-12-01T01:57:05.804Z,3.6
2022-12-01T01:58:05.956Z,3.6
2022-12-01T01:59:06.107Z,3.6
2022-12-01T02:00:06.261Z,3.6
2022-12-01T02:01:06.473Z,3.6
2022-12-01T02:02:06.939Z,3.6
2022-12-01T02:03:07.187Z,3.6
2022-12-01T02:04:07.335Z,3.6
2022-12-01T02:05:07.489Z,3.6
2022-12-01T02:06:07.634Z,3.6
2022-12-01T02:07:07.784Z,3.6
2022-12-01T02:08:08.097Z,3.6
2022-12-01T02:09:08.491Z,3.6
2022-12-01T02:10:08.645Z,3.6
2022-12-01T02:11:08.804Z,3.6
2022-12-01T02:12:08.954Z,3.6
2022-12-01T02:13:09.106Z,3.6
2022-12-01T02:14:09.261Z,3.6
2022-12-01T02:15:09.413Z,3.6
2022-12-01T02:16:09.591Z,3.6
2022-12-01T02:17:09.821Z,3.6
2022-12-01T02:18:10.048Z,3.6
2022-12-01T02:19:10.196Z,3.6
2022-12-01T02:20:10.346Z,3.6
2022-12-01T02:21:10.508Z,3.6
2022-12-01T02:22:10.657Z,3.6
2022-12-01T02:23:10.806Z,3.6
2022-12-01T02:24:10.957Z,3.6
2022-12-01T02:25:11.118Z,3.6
2022-12-01T02:26:11.272Z,3.6
2022-12-01T02:27:11.435Z,3.6
2022-12-01T02:28:11.582Z,3.6
2022-12-01T02:29:11.734Z,3.6
2022-12-01T02:30:11.901Z,3.6
2022-12-01T02:31:15.386Z,3.6
2022-12-01T02:32:15.671Z,3.6
2022-12-01T02:33:15.825Z,3.6
2022-12-01T02:34:15.988Z,3.6
2022-12-01T02:35:16.141Z,3.6
2022-12-01T02:36:16.290Z,3.6
2022-12-01T02:37:16.447Z,3.6
2022-12-01T02:38:16.601Z,3.6
2022-12-01T02:39:16.754Z,3.6
2022-12-01T02:40:16.912Z,3.6
2022-12-01T02:41:17.069Z,3.6
2022-12-01T02:42:17.217Z,3.6
2022-12-01T02:43:17.371Z,3.6
2022-12-01T02:44:17.529Z,3.6
2022-12-01T02:45:17.684Z,3.6
2022-12-01T02:46:17.981Z,3.6
2022-12-01T02:47:18.228Z,3.6
2022-12-01T02:48:18.390Z,3.6
2022-12-01T02:49:18.556Z,3.6
2022-12-01T02:50:18.706Z,3.6
2022-12-01T02:51:18.860Z,3.6
2022-12-01T02:52:19.019Z,3.6
2022-12-01T02:53:19.173Z,3.6
2022-12-01T02:54:19.323Z,3.6
2022-12-01T02:55:19.476Z,3.5
2022-12-01T02:56:19.621Z,3.5
2022-12-01T02:57:19.775Z,3.5
2022-12-01T02:58:19.925Z,3.5
2022-12-01T02:59:20.083Z,3.5
2022-12-01T03:00:20.241Z,3.5
2022-12-01T03:01:20.453Z,3.5
2022-12-01T03:02:20.811Z,3.5
2022-12-01T03:03:21.080Z,3.5
2022-12-01T03:04:21.238Z,3.5
2022-12-01T03:05:21.388Z,3.5
2022-12-01T03:06:21.553Z,3.5
2022-12-01T03:07:21.853Z,3.5
2022-12-01T03:08:22.198Z,3.5
2022-12-01T03:09:22.350Z,3.5
2022-12-01T03:10:22.504Z,3.5
2022-12-01T03:11:22.653Z,3.5
2022-12-01T03:12:22.800Z,3.5
2022-12-01T03:13:22.955Z,3.5
2022-12-01T03:14:23.109Z,3.5
2022-12-01T03:15:23.257Z,3.5
2022-12-01T03:16:23.528Z,3.5
2022-12-01T03:17:23.764Z,3.5
2022-12-01T03:18:23.951Z,3.5
2022-12-01T03:19:24.125Z,3.5
2022-12-01T03:20:24.280Z,3.5
2022-12-01T03:21:24.430Z,3.5
2022-12-01T03:22:24.583Z,3.5
2022-12-01T03:23:24.745Z,3.5
2022-12-01T03:24:24.900Z,3.5
2022-12-01T03:25:25.058Z,3.5
2022-12-01T03:26:25.212Z,3.5
2022-12-01T03:27:25.371Z,3.5
2022-12-01T03:28:25.525Z,3.5
2022-12-01T03:29:25.680Z,3.5
2022-12-01T03:30:25.830Z,3.5
2022-12-01T03:31:26.058Z,3.5
2022-12-01T03:32:26.329Z,3.5
2022-12-01T03:33:26.478Z,3.5
2022-12-01T03:34:26.634Z,3.5
2022-12-01T03:35:26.786Z,3.5
2022-12-01T03:36:26.938Z,3.5
2022-12-01T03:37:27.089Z,3.5
2022-12-01T03:38:27.249Z,3.5
2022-12-01T03:39:27.406Z,3.5
2022-12-01T03:40:27.552Z,3.5
2022-12-01T03:41:27.729Z,3.5
2022-12-01T03:42:27.942Z,3.5
2022-12-01T03:43:28.099Z,3.5
2022-12-01T03:44:28.251Z,3.5
2022-12-01T03:45:28.399Z,3.5
2022-12-01T03:46:28.678Z,3.5
2022-12-01T03:47:28.911Z,3.5
2022-12-01T03:48:29.069Z,3.5
2022-12-01T03:49:29.228Z,3.5
2022-12-01T03:50:29.382Z,3.5
2022-12-01T03:51:29.529Z,3.5
2022-12-01T03:52:29.679Z,3.5
2022-12-01T03:53:29.828Z,3.5
2022-12-01T03:54:29.974Z,3.5
2022-12-01T03:55:30.129Z,3.5
2022-12-01T03:56:30.287Z,3.5
2022-12-01T03:57:30.438Z,3.5
2022-12-01T03:58:30.638Z,3.5
2022-12-01T03:59:30.789Z,3.5
2022-12-01T04:00:30.945Z,3.5
2022-12-01T04:01:31.229Z,3.5
2022-12-01T04:02:31.536Z,3.5
2022-12-01T04:03:31.734Z,3.5
2022-12-01T04:04:31.902Z,3.5
2022-12-01T04:05:32.050Z,3.5
2022-12-01T04:06:32.203Z,3.5
2022-12-01T04:07:32.492Z,3.5
2022-12-01T04:08:32.759Z,3.5
2022-12-01T04:09:32.915Z,3.5
2022-12-01T04:10:33.070Z,3.5
2022-12-01T04:11:33.240Z,3.5
2022-12-01T04:12:33.423Z,3.5
2022-12-01T04:13:33.569Z,3.5
2022-12-01T04:14:33.723Z,3.5
2022-12-01T04:15:33.879Z,3.5
2022-12-01T04:16:34.122Z,3.5
2022-12-01T04:17:34.395Z,3.5
2022-12-01T04:18:34.575Z,3.5
2022-12-01T04:19:34.740Z,3.5
2022-12-01T04:20:34.886Z,3.5
2022-12-01T04:21:35.039Z,3.5
2022-12-01T04:22:35.200Z,3.5
2022-12-01T04:23:35.374Z,3.5
2022-12-01T04:24:35.556Z,3.5
2022-12-01T04:25:35.738Z,3.5
2022-12-01T04:26:35.930Z,3.5
2022-12-01T04:27:36.166Z,3.5
2022-12-01T04:28:36.431Z,3.5
2022-12-01T04:29:36.595Z,3.5
2022-12-01T04:30:36.758Z,3.5
2022-12-01T04:31:37.057Z,3.5
2022-12-01T04:32:37.321Z,3.5
2022-12-01T04:33:37.478Z,3.5
2022-12-01T04:34:37.635Z,3.5
2022-12-01T04:35:37.794Z,3.5
2022-12-01T04:36:37.956Z,3.5
2022-12-01T04:37:38.114Z,3.5
2022-12-01T04:38:38.263Z,3.5
2022-12-01T04:39:38.424Z,3.5
2022-12-01T04:40:38.577Z,3.5
2022-12-01T04:41:38.728Z,3.5
2022-12-01T04:42:38.883Z,3.5
2022-12-01T04:43:39.033Z,3.5
2022-12-01T04:44:39.184Z,3.5
2022-12-01T04:45:39.333Z,3.5
2022-12-01T04:46:39.689Z,3.5
2022-12-01T04:47:39.962Z,3.5
2022-12-01T04:48:40.123Z,3.5
2022-12-01T04:49:40.279Z,3.5
2022-12-01T04:50:40.426Z,3.5
2022-12-01T04:51:40.576Z,3.5
2022-12-01T04:52:40.729Z,3.5
2022-12-01T04:53:40.878Z,3.5
2022-12-01T04:54:41.030Z,3.5
2022-12-01T04:55:41.183Z,3.5
2022-12-01T04:56:41.343Z,3.5
2022-12-01T04:57:41.504Z,3.5
2022-12-01T04:58:41.664Z,3.5
2022-12-01T04:59:41.815Z,3.5
2022-12-01T05:00:42.128Z,3.5
2022-12-01T05:01:42.450Z,3.5
2022-12-01T05:02:42.700Z,3.5
2022-12-01T05:03:42.863Z,3.5
2022-12-01T05:04:43.017Z,3.5
2022-12-01T05:05:43.166Z,3.5
2022-12-01T05:06:43.321Z,3.5
2022-12-01T05:07:43.626Z,3.5
2022-12-01T05:08:43.896Z,3.5
2022-12-01T05:09:44.082Z,3.5
2022-12-01T05:10:44.232Z,3.5
2022-12-01T05:11:44.383Z,3.5
2022-12-01T05:12:44.535Z,3.5
2022-12-01T05:13:44.685Z,3.5
2022-12-01T05:14:44.846Z,3.5
2022-12-01T05:15:45.002Z,3.4
2022-12-01T05:16:45.315Z,3.4
2022-12-01T05:17:45.570Z,3.4
2022-12-01T05:18:45.809Z,3.4
2022-12-01T05:19:46.276Z,3.4
2022-12-01T05:20:46.757Z,3.4
2022-12-01T05:21:46.911Z,3.4
2022-12-01T05:23:06.374Z,3.4
2022-12-01T05:24:08.283Z,3.4
2022-12-01T05:25:08.439Z,3.4
2022-12-01T05:26:08.609Z,3.4
2022-12-01T05:27:08.769Z,3.4
2022-12-01T05:28:08.921Z,3.4
2022-12-01T05:29:09.076Z,3.4
2022-12-01T05:30:09.227Z,3.4
2022-12-01T05:31:09.496Z,3.4
2022-12-01T05:32:09.770Z,3.4
2022-12-01T05:33:09.919Z,3.4
2022-12-01T05:34:10.083Z,3.4
2022-12-01T05:35:10.229Z,3.4
2022-12-01T05:36:10.387Z,3.4
2022-12-01T05:37:10.538Z,3.4
2022-12-01T05:38:10.695Z,3.4
2022-12-01T05:39:10.850Z,3.4
2022-12-01T05:40:11.005Z,3.4
2022-12-01T05:41:11.164Z,3.4
2022-12-01T05:42:11.314Z,3.4
2022-12-01T05:43:11.465Z,3.4
2022-12-01T05:44:11.610Z,3.4
2022-12-01T05:45:11.767Z,3.4
2022-12-01T05:46:12.087Z,3.4
2022-12-01T05:47:12.404Z,3.4
2022-12-01T05:48:12.554Z,3.4
2022-12-01T05:49:12.706Z,3.4
2022-12-01T05:50:12.863Z,3.4
2022-12-01T05:51:13.013Z,3.4
2022-12-01T05:52:13.170Z,3.4
2022-12-01T05:53:13.357Z,3.4
2022-12-01T05:54:13.519Z,3.4
2022-12-01T05:55:13.674Z,3.4
2022-12-01T05:56:13.828Z,3.4
2022-12-01T05:57:13.975Z,3.4
2022-12-01T05:58:14.137Z,3.4
2022-12-01T05:59:14.285Z,3.4
2022-12-01T06:00:14.437Z,3.4
2022-12-01T06:01:14.594Z,3.4
2022-12-01T06:02:14.881Z,3.4
2022-12-01T06:03:15.111Z,3.4
2022-12-01T06:04:15.351Z,3.4
2022-12-01T06:05:15.617Z,3.4
2022-12-01T06:06:15.763Z,3.4
2022-12-01T06:07:15.926Z,3.4
2022-12-01T06:08:16.083Z,3.4
2022-12-01T06:09:16.241Z,3.4
2022-12-01T06:10:16.393Z,3.4
2022-12-01T06:11:16.547Z,3.4
2022-12-01T06:12:16.696Z,3.4
2022-12-01T06:13:16.842Z,3.4
2022-12-01T06:14:16.989Z,3.4
2022-12-01T06:15:17.145Z,3.4
2022-12-01T06:16:17.401Z,3.4
2022-12-01T06:17:17.842Z,3.4
2022-12-01T06:18:17.997Z,3.4
2022-12-01T06:19:18.151Z,3.4
2022-12-01T06:20:18.304Z,3.4
2022-12-01T06:21:18.459Z,3.4
2022-12-01T06:22:18.623Z,3.4
2022-12-01T06:23:18.771Z,3.4
2022-12-01T06:24:18.921Z,3.4
2022-12-01T06:25:19.076Z,3.4
2022-12-01T06:26:19.236Z,3.4
2022-12-01T06:27:19.400Z,3.4
2022-12-01T06:28:19.554Z,3.4
2022-12-01T06:29:19.705Z,3.4
2022-12-01T06:30:19.852Z,3.4
2022-12-01T06:31:20.141Z,3.4
2022-12-01T06:32:20.407Z,3.4
2022-12-01T06:33:20.560Z,3.4
2022-12-01T06:34:20.711Z,3.4
2022-12-01T06:35:20.872Z,3.4
2022-12-01T06:36:21.031Z,3.4
2022-12-01T06:37:21.184Z,3.4
2022-12-01T06:38:21.341Z,3.4
2022-12-01T06:39:21.487Z,3.4
2022-12-01T06:40:21.631Z,3.4
2022-12-01T06:41:21.783Z,3.4
2022-12-01T06:42:21.930Z,3.4
2022-12-01T06:43:22.076Z,3.4
2022-12-01T06:44:22.226Z,3.4
2022-12-01T06:45:22.382Z,3.4
2022-12-01T06:46:22.694Z,3.4
2022-12-01T06:47:23.057Z,3.4
2022-12-01T06:48:23.215Z,3.4
2022-12-01T06:49:23.366Z,3.4
2022-12-01T06:50:23.525Z,3.4
2022-12-01T06:51:23.670Z,3.4
2022-12-01T06:52:23.839Z,3.4
2022-12-01T06:53:23.990Z,3.4
2022-12-01T06:54:24.168Z,3.4
2022-12-01T06:55:24.407Z,3.5
2022-12-01T06:56:25.388Z,3.5
2022-12-01T06:57:26.376Z,3.5
2022-12-01T06:58:27.160Z,3.5
2022-12-01T06:59:28.085Z,3.5
2022-12-01T07:00:28.863Z,3.5
2022-12-01T07:01:29.314Z,3.5
2022-12-01T07:02:29.738Z,3.5
2022-12-01T07:03:30.144Z,3.5
2022-12-01T07:04:30.415Z,3.5
2022-12-01T07:05:30.594Z,3.6
2022-12-01T07:06:30.754Z,3.6
2022-12-01T07:07:31.052Z,3.6
2022-12-01T07:08:31.333Z,3.6
2022-12-01T07:09:31.493Z,3.6
2022-12-01T07:10:31.642Z,3.6
2022-12-01T07:11:31.789Z,3.6
2022-12-01T07:12:31.944Z,3.6
2022-12-01T07:13:34.210Z,3.6
2022-12-01T07:14:34.396Z,3.6
2022-12-01T07:15:34.555Z,3.5
2022-12-01T07:16:34.826Z,3.5
2022-12-01T07:17:35.132Z,3.5
2022-12-01T07:18:35.285Z,3.5
2022-12-01T07:19:35.439Z,3.5
2022-12-01T07:20:35.592Z,3.5
2022-12-01T07:21:35.747Z,3.5
2022-12-01T07:22:35.894Z,3.5
2022-12-01T07:23:36.048Z,3.5
2022-12-01T07:24:36.207Z,3.5
2022-12-01T07:25:36.367Z,3.4
2022-12-01T07:26:36.518Z,3.4
2022-12-01T07:27:36.671Z,3.4
2022-12-01T07:28:36.829Z,3.4
2022-12-01T07:29:36.979Z,3.4
2022-12-01T07:30:37.220Z,3.4
2022-12-01T07:31:37.408Z,3.4
2022-12-01T07:32:37.568Z,3.4
2022-12-01T07:33:37.721Z,3.4
2022-12-01T07:34:37.872Z,3.4
2022-12-01T07:35:38.023Z,3.4
2022-12-01T07:36:38.176Z,3.4
2022-12-01T07:37:38.329Z,3.4
2022-12-01T07:38:38.481Z,3.4
2022-12-01T07:39:38.645Z,3.4
2022-12-01T07:40:38.799Z,3.4
2022-12-01T07:41:38.952Z,3.4
2022-12-01T07:42:39.101Z,3.4
2022-12-01T07:43:39.251Z,3.4
2022-12-01T07:44:39.406Z,3.4
2022-12-01T07:45:39.757Z,3.3
2022-12-01T07:46:40.124Z,3.3
2022-12-01T07:47:40.387Z,3.3
2022-12-01T07:48:40.551Z,3.3
2022-12-01T07:49:40.701Z,3.3
2022-12-01T07:50:40.864Z,3.3
2022-12-01T07:51:41.015Z,3.3
2022-12-01T07:52:41.178Z,3.3
2022-12-01T07:53:41.330Z,3.3
2022-12-01T07:54:41.491Z,3.3
2022-12-01T07:55:41.650Z,3.4
2022-12-01T07:56:41.806Z,3.4
2022-12-01T07:57:41.964Z,3.4
2022-12-01T07:58:42.136Z,3.4
2022-12-01T07:59:42.304Z,3.4
2022-12-01T08:00:42.456Z,3.4
2022-12-01T08:01:45.044Z,3.4
2022-12-01T08:02:45.498Z,3.4
2022-12-01T08:03:45.801Z,3.4
2022-12-01T08:04:45.954Z,3.4
2022-12-01T08:05:46.106Z,3.4
2022-12-01T08:06:46.265Z,3.4
2022-12-01T08:07:46.514Z,3.4
2022-12-01T08:08:46.711Z,3.4
2022-12-01T08:09:47.597Z,3.4
2022-12-01T08:10:48.314Z,3.4
2022-12-01T08:11:48.586Z,3.4
2022-12-01T08:12:48.740Z,3.4
2022-12-01T08:13:48.897Z,3.4
2022-12-01T08:14:49.063Z,3.4
2022-12-01T08:15:49.365Z,3.4
2022-12-01T08:16:49.650Z,3.4
2022-12-01T08:17:49.818Z,3.4
2022-12-01T08:18:49.972Z,3.4
2022-12-01T08:19:50.975Z,3.4
2022-12-01T08:20:51.723Z,3.4
2022-12-01T08:21:51.885Z,3.4
2022-12-01T08:22:52.046Z,3.4
2022-12-01T08:23:52.196Z,3.4
2022-12-01T08:24:52.350Z,3.4
2022-12-01T08:25:52.510Z,3.4
2022-12-01T08:26:52.688Z,3.4
2022-12-01T08:27:52.862Z,3.4
2022-12-01T08:28:53.019Z,3.4
2022-12-01T08:29:53.174Z,3.4
2022-12-01T08:30:53.481Z,3.4
2022-12-01T08:31:53.792Z,3.4
2022-12-01T08:32:53.943Z,3.4
2022-12-01T08:33:54.104Z,3.4
2022-12-01T08:34:54.323Z,3.4
2022-12-01T08:35:54.485Z,3.5
2022-12-01T08:36:54.638Z,3.5
2022-12-01T08:37:54.799Z,3.5
2022-12-01T08:38:54.952Z,3.5
2022-12-01T08:39:55.123Z,3.5
2022-12-01T08:40:55.283Z,3.5
2022-12-01T08:41:55.440Z,3.5
2022-12-01T08:42:55.595Z,3.5
2022-12-01T08:43:59.734Z,3.5
2022-12-01T08:45:08.987Z,3.5
2022-12-01T08:46:09.257Z,3.5
2022-12-01T08:47:17.200Z,3.5
2022-12-01T08:48:19.230Z,3.6
2022-12-01T08:49:19.386Z,3.6
2022-12-01T08:50:19.549Z,3.6
2022-12-01T08:51:19.707Z,3.6
2022-12-01T08:52:19.872Z,3.6
2022-12-01T08:53:20.024Z,3.6
2022-12-01T08:54:20.213Z,3.6
2022-12-01T08:55:20.379Z,3.6
2022-12-01T08:56:20.596Z,3.6
2022-12-01T08:57:20.770Z,3.6
2022-12-01T08:58:20.937Z,3.6
2022-12-01T08:59:21.103Z,3.6
2022-12-01T09:00:21.301Z,3.6
2022-12-01T09:01:21.604Z,3.6
2022-12-01T09:02:22.230Z,3.6
2022-12-01T09:03:22.811Z,3.6
2022-12-01T09:04:23.057Z,3.6
2022-12-01T09:05:23.209Z,3.6
2022-12-01T09:06:23.371Z,3.6
2022-12-01T09:07:27.136Z,3.6
2022-12-01T09:08:27.502Z,3.6
2022-12-01T09:09:27.662Z,3.6
2022-12-01T09:10:27.966Z,3.6
2022-12-01T09:11:28.132Z,3.6
2022-12-01T09:12:28.284Z,3.6
2022-12-01T09:13:28.440Z,3.6
2022-12-01T09:14:28.587Z,3.6
2022-12-01T09:15:28.742Z,3.7
2022-12-01T09:16:29.260Z,3.7
2022-12-01T09:17:29.683Z,3.7
2022-12-01T09:18:29.831Z,3.7
2022-12-01T09:19:29.990Z,3.7
2022-12-01T09:20:30.146Z,3.7
2022-12-01T09:21:30.346Z,3.7
2022-12-01T09:22:30.560Z,3.7
2022-12-01T09:23:30.711Z,3.7
2022-12-01T09:24:30.866Z,3.7
2022-12-01T09:25:31.018Z,3.7
2022-12-01T09:26:31.169Z,3.7
2022-12-01T09:27:31.329Z,3.7
2022-12-01T09:28:31.477Z,3.7
2022-12-01T09:29:31.631Z,3.7
2022-12-01T09:30:31.787Z,3.7
2022-12-01T09:31:32.070Z,3.7
2022-12-01T09:32:32.331Z,3.7
2022-12-01T09:33:32.478Z,3.7
2022-12-01T09:34:32.644Z,3.7
2022-12-01T09:35:32.798Z,3.7
2022-12-01T09:36:32.957Z,3.7
2022-12-01T09:37:33.114Z,3.7
2022-12-01T09:38:33.279Z,3.7
2022-12-01T09:39:33.438Z,3.7
2022-12-01T09:40:33.596Z,3.7
2022-12-01T09:41:33.749Z,3.7
2022-12-01T09:42:35.826Z,3.7
2022-12-01T09:43:36.012Z,3.7
2022-12-01T09:44:36.171Z,3.7
2022-12-01T09:45:36.330Z,3.8
2022-12-01T09:46:36.712Z,3.8
2022-12-01T09:47:37.023Z,3.8
2022-12-01T09:48:37.180Z,3.8
2022-12-01T09:49:37.361Z,3.8
2022-12-01T09:50:37.857Z,3.8
2022-12-01T09:51:38.007Z,3.8
2022-12-01T09:52:38.165Z,3.8
2022-12-01T09:53:38.332Z,3.8
2022-12-01T09:54:38.477Z,3.8
2022-12-01T09:55:38.623Z,3.8
2022-12-01T09:56:38.775Z,3.8
2022-12-01T09:57:38.935Z,3.8
2022-12-01T09:58:39.086Z,3.8
2022-12-01T09:59:39.237Z,3.8
2022-12-01T10:00:39.491Z,3.8
2022-12-01T10:01:39.896Z,3.8
2022-12-01T10:02:40.249Z,3.8
2022-12-01T10:03:40.404Z,3.8
2022-12-01T10:04:40.582Z,3.8
2022-12-01T10:06:33.117Z,3.8
2022-12-01T10:07:33.591Z,3.9
2022-12-01T10:08:33.886Z,3.9
2022-12-01T10:09:34.054Z,3.9
2022-12-01T10:10:34.205Z,3.9
2022-12-01T10:11:34.361Z,3.9
2022-12-01T10:12:34.514Z,3.9
2022-12-01T10:13:34.683Z,3.9
2022-12-01T10:14:34.832Z,3.9
2022-12-01T10:15:34.990Z,3.9
2022-12-01T10:16:35.233Z,3.9
2022-12-01T10:17:35.495Z,3.9
2022-12-01T10:18:35.649Z,3.9
2022-12-01T10:19:35.810Z,3.9
2022-12-01T10:20:36.027Z,3.9
2022-12-01T10:21:36.209Z,3.9
2022-12-01T10:22:36.370Z,3.9
2022-12-01T10:23:36.521Z,3.9
2022-12-01T10:24:36.672Z,3.9
2022-12-01T10:25:36.818Z,3.9
2022-12-01T10:26:36.971Z,3.9
2022-12-01T10:27:37.126Z,3.9
2022-12-01T10:28:37.285Z,3.9
2022-12-01T10:29:37.437Z,3.9
2022-12-01T10:30:37.587Z,3.9
2022-12-01T10:31:37.877Z,3.9
2022-12-01T10:32:38.113Z,3.9
2022-12-01T10:33:38.266Z,3.9
2022-12-01T10:34:38.424Z,3.9
2022-12-01T10:35:38.580Z,4
2022-12-01T10:36:38.737Z,4
2022-12-01T10:37:38.957Z,4
2022-12-01T10:38:39.162Z,4
2022-12-01T10:39:39.328Z,4
2022-12-01T10:40:39.496Z,4
2022-12-01T10:41:39.645Z,4
2022-12-01T10:42:39.791Z,4
2022-12-01T10:43:39.996Z,4
2022-12-01T10:44:40.160Z,4
2022-12-01T10:45:40.424Z,4.1
2022-12-01T10:46:40.789Z,4.1
2022-12-01T10:47:40.940Z,4.1
2022-12-01T10:48:41.097Z,4.1
2022-12-01T10:49:41.259Z,4.1
2022-12-01T10:50:41.410Z,4.1
2022-12-01T10:51:41.571Z,4.1
2022-12-01T10:52:41.725Z,4.1
2022-12-01T10:53:41.885Z,4.1
2022-12-01T10:54:42.039Z,4.1
2022-12-01T10:55:48.233Z,4.1
2022-12-01T10:56:48.430Z,4.1
2022-12-01T10:57:48.586Z,4.1
2022-12-01T10:58:48.755Z,4.1
2022-12-01T10:59:49.875Z,4.1
2022-12-01T11:01:00.802Z,4.1
2022-12-01T11:02:02.063Z,4.1
2022-12-01T11:03:03.064Z,4.1
2022-12-01T11:04:03.443Z,4.1
2022-12-01T11:05:03.603Z,4.1
2022-12-01T11:06:03.764Z,4.19
2022-12-01T11:07:03.926Z,4.19
2022-12-01T11:08:04.129Z,4.19
2022-12-01T11:09:04.413Z,4.19
2022-12-01T11:10:04.564Z,4.19
2022-12-01T11:11:04.717Z,4.19
2022-12-01T11:12:04.873Z,4.19
2022-12-01T11:13:05.040Z,4.19
2022-12-01T11:14:05.201Z,4.19
2022-12-01T11:15:05.358Z,4.19
2022-12-01T11:16:05.693Z,4.19
2022-12-01T11:17:06.073Z,4.19
2022-12-01T11:18:06.302Z,4.19
2022-12-01T11:19:06.481Z,4.19
2022-12-01T11:20:06.847Z,4.19
2022-12-01T11:21:07.150Z,4.19
2022-12-01T11:22:07.304Z,4.19
2022-12-01T11:23:07.466Z,4.19
2022-12-01T11:24:07.648Z,4.19
2022-12-01T11:25:07.811Z,4.19
2022-12-01T11:26:07.995Z,4.19
2022-12-01T11:27:08.383Z,4.19
2022-12-01T11:28:08.779Z,4.19
2022-12-01T11:29:08.928Z,4.19
2022-12-01T11:30:09.088Z,4.19
2022-12-01T11:31:09.267Z,4.19
2022-12-01T11:32:09.564Z,4.19
2022-12-01T11:33:09.842Z,4.19
2022-12-01T11:34:09.997Z,4.19
2022-12-01T11:35:10.159Z,4.19
2022-12-01T11:36:16.388Z,4.19
2022-12-01T11:37:16.588Z,4.19
2022-12-01T11:38:32.131Z,4.19
2022-12-01T11:39:32.294Z,4.19
2022-12-01T11:40:32.452Z,4.19
2022-12-01T11:41:32.636Z,4.19
2022-12-01T11:42:32.796Z,4.19
2022-12-01T11:43:32.950Z,4.19
2022-12-01T11:44:52.124Z,4.19
2022-12-01T11:45:52.770Z,4.19
2022-12-01T11:47:23.015Z,4.19
2022-12-01T11:48:24.920Z,4.3
2022-12-01T11:49:25.073Z,4.3
2022-12-01T11:50:25.231Z,4.3
2022-12-01T11:51:25.385Z,4.3
2022-12-01T11:52:25.579Z,4.3
2022-12-01T11:53:25.760Z,4.3
2022-12-01T11:54:25.921Z,4.3
2022-12-01T11:55:26.076Z,4.3
2022-12-01T11:56:26.234Z,4.3
2022-12-01T11:57:35.244Z,4.3
2022-12-01T11:58:35.773Z,4.3
2022-12-01T11:59:36.035Z,4.3
2022-12-01T12:00:36.182Z,4.3
2022-12-01T12:01:36.335Z,4.3
2022-12-01T12:02:36.693Z,4.3
2022-12-01T12:03:37.024Z,4.3
2022-12-01T12:04:37.287Z,4.3
2022-12-01T12:05:37.434Z,4.3
2022-12-01T12:06:40.811Z,4.3
2022-12-01T12:07:41.162Z,4.3
2022-12-01T12:08:41.501Z,4.3
2022-12-01T12:09:46.077Z,4.3
2022-12-01T12:10:46.544Z,4.3
2022-12-01T12:11:46.794Z,4.3
2022-12-01T12:12:46.958Z,4.3
2022-12-01T12:13:47.145Z,4.3
2022-12-01T12:14:47.586Z,4.3
2022-12-01T12:15:50.832Z,4.3
2022-12-01T12:16:50.995Z,4.3
2022-12-01T12:17:51.322Z,4.3
2022-12-01T12:18:51.571Z,4.3
2022-12-01T12:20:09.589Z,4.3
2022-12-01T12:21:10.460Z,4.3
2022-12-01T12:22:10.614Z,4.3
2022-12-01T12:23:10.769Z,4.3
2022-12-01T12:24:10.922Z,4.3
2022-12-01T12:25:11.072Z,4.19
2022-12-01T12:26:11.229Z,4.19
2022-12-01T12:27:11.391Z,4.19
2022-12-01T12:28:11.538Z,4.19
2022-12-01T12:29:14.245Z,4.19
2022-12-01T12:30:14.414Z,4.19
2022-12-01T12:31:14.812Z,4.19
2022-12-01T12:32:15.083Z,4.19
2022-12-01T12:33:15.238Z,4.19
2022-12-01T12:34:15.385Z,4.19
2022-12-01T12:35:15.544Z,4.19
2022-12-01T12:36:15.696Z,4.19
2022-12-01T12:37:15.845Z,4.19
2022-12-01T12:38:16.008Z,4.19
2022-12-01T12:39:17.239Z,4.19
2022-12-01T12:40:17.506Z,4.19
2022-12-01T12:41:17.662Z,4.19
2022-12-01T12:42:17.821Z,4.19
2022-12-01T12:43:17.974Z,4.19
2022-12-01T12:44:18.120Z,4.19
2022-12-01T12:45:18.276Z,4.1
2022-12-01T12:46:18.593Z,4.1
2022-12-01T12:47:18.860Z,4.1
2022-12-01T12:48:19.027Z,4.1
2022-12-01T12:49:21.090Z,4.1
2022-12-01T12:50:21.480Z,4.1
2022-12-01T12:51:21.668Z,4.1
2022-12-01T12:52:21.865Z,4.1
2022-12-01T12:53:22.024Z,4.1
2022-12-01T12:54:22.380Z,4.1
2022-12-01T12:55:22.743Z,4.1
2022-12-01T12:56:22.905Z,4.1
2022-12-01T12:57:23.056Z,4.1
2022-12-01T12:58:23.224Z,4.1
2022-12-01T12:59:23.376Z,4.1
2022-12-01T13:00:23.526Z,4.1
2022-12-01T13:01:23.877Z,4.1
2022-12-01T13:02:24.256Z,4.1
2022-12-01T13:03:33.865Z,4.1
2022-12-01T13:04:34.470Z,4.1
2022-12-01T13:05:34.623Z,4.1
2022-12-01T13:06:34.776Z,4.1
2022-12-01T13:07:35.006Z,4.1
2022-12-01T13:08:35.282Z,4.1
2022-12-01T13:09:35.429Z,4.1
2022-12-01T13:10:35.603Z,4.1
2022-12-01T13:11:35.766Z,4.1
2022-12-01T13:12:35.936Z,4.1
2022-12-01T13:13:36.093Z,4.1
2022-12-01T13:14:36.947Z,4.1
2022-12-01T13:15:37.232Z,4.1
2022-12-01T13:16:37.524Z,4.1
2022-12-01T13:17:37.674Z,4.1
2022-12-01T13:18:37.832Z,4.1
2022-12-01T13:19:37.985Z,4.1
2022-12-01T13:20:38.142Z,4.1
2022-12-01T13:21:38.462Z,4.1
2022-12-01T13:22:38.707Z,4.1
2022-12-01T13:23:38.870Z,4.1
2022-12-01T13:24:39.025Z,4.1
2022-12-01T13:25:39.175Z,4.1
2022-12-01T13:26:39.351Z,4.1
2022-12-01T13:27:39.521Z,4.1
2022-12-01T13:28:39.691Z,4.1
2022-12-01T13:29:44.383Z,4.1
2022-12-01T13:30:44.837Z,4.1
2022-12-01T13:31:45.549Z,4.1
2022-12-01T13:32:45.957Z,4.1
2022-12-01T13:33:46.150Z,4.1
2022-12-01T13:34:46.300Z,4.1
2022-12-01T13:35:46.457Z,4.1
2022-12-01T13:36:47.827Z,4.1
2022-12-01T13:37:48.033Z,4.1
2022-12-01T13:38:48.183Z,4.1
2022-12-01T13:39:49.121Z,4.1
2022-12-01T13:40:49.740Z,4.1
2022-12-01T13:41:49.896Z,4.1
2022-12-01T13:42:50.061Z,4.1
2022-12-01T13:43:50.221Z,4.1
2022-12-01T13:44:51.034Z,4.1
2022-12-01T13:45:51.984Z,4
2022-12-01T13:46:52.284Z,4
2022-12-01T13:47:52.611Z,4
2022-12-01T13:48:52.765Z,4
2022-12-01T13:49:53.437Z,4
2022-12-01T13:50:53.788Z,4
2022-12-01T13:51:53.977Z,4
2022-12-01T13:52:54.191Z,4